Andover, New Hampshire
Current Conditions -  °F | °C
As of 4:35 PM on Thursday 27 Nov 2014 (Local Time) from KLCI Reporting Station
Overcast Overcast  
Wind Chill: 30°   Ceiling: 2700
Heat Index: 30°   Visibility: 10mi
Dew Point: 23°   Wind: 0mph
Humidity: 75%   Direction: NA
Pressure: 29.93"   Gusts: NA
Location:  43.44°N, 71.82°W
Report Text: KLCI 272135Z AUTO 00000KT 10SM OVC027 M01/M05 A2993 RMK AO1
Loading
Personal Weather Stations






























Interactive Weather Map New forecast layout! Learn more

10-Day Weather Forecast

Advertisements
Track Severe Weather on mobile